Airfield :
LOGIN :

Register | Disclaimer

   EN    FR    IT 

 










Legend :    VFR   Marginal VFR   IFR   Intensive IFR   Very Intensive IFR
Visi :
Ceiling :
>= 8 km
>= 3000ft
5 to 8 km
1000 to 3000 ft
1500m to 5 km
500 to 1000 ft
800 to 1500m
200 to 500 ft
< 800m
< 200 ft
Symbols :   Thunderstorms  Fog  Heavy snow  Heavy precipitations  Wind > 20 kt
SIGMETs :     Misc.  Thunderstorms  Icing  Turbulence  Mountain Waves  Volcanic Ashes






- Airport Elevation : 370 ft


EBBE - Beauvechain AB

CURRENT METAR :
  • 160355Z AUTO 20011KT 9999 FEW060/// 11/09 Q1009 BLU

EXPIRED METARs :
  • 160325Z AUTO 21010KT 9999 BKN060/// 11/09 Q1009 BLU
  • 160255Z AUTO 22010KT 9999 FEW023/// SCT037/// BKN060/// 11/09 Q1009 BLU
  • 160243Z AUTO 22010KT 9999 FEW018/// SCT025/// BKN065/// 11/10 Q1010 BLU
  • 160225Z AUTO 22009KT 9999 FEW017/// SCT020/// BKN065/// 11/10 Q1010 WHT
  • 160155Z AUTO 22009KT 9999 FEW010/// SCT016/// BKN019/// 11/10 Q1010 WHT
  • 160125Z AUTO 21010KT 9999 DZ FEW008/// SCT011/// BKN014/// 11/10 Q1010 GRN
  • 160055Z AUTO 21009KT 9999 SCT013/// BKN018/// OVC046/// 11/10 Q1010 GRN

TAF TAF EBBE
Valid from the 15 at 19:00 until the 16 at 07:00 UTC


151541Z 1519/1607 21007KT 9999 SCT040 BKN060
TEMPO 1519/1607 7000 -RA
TEMPO 1519/1607 21010G20KT 4000 -SHRA SCT015TCU BKN030
PROB30
TEMPO 1519/1521 21012G25KT 3000 TSRA SCT012CB BKN020



MET'MAP, your aeronautical weather chart ! - Copyright ORBIFLY December 2007 - Disclaimer

ORBIFLY MET'MAP TEAM :

Programming & Development : Alexandra Zaïnal
Concept & Development : Baudouin d'Aumeries
Co-Development & Prog : Marc-Olivier Méhu
Technical & hardware support : Manuel Goepfert

Contact : metmap@orbifly.com




SOURCES & CREDITS :

   NOAA